Time;durP1;ratioP1;P1;durP2;ratioP2;P2;SDS_P1;SDS_P2;PMS_P1;PMS_P2;Temp;Humidity;BMP_temperature;BMP_pressure;BME280_temperature;BME280_humidity;BME280_pressure;Samples;Min_cycle;Max_cycle;Signal;HPM_P1;HPM_P2
2022/07/22 00:00:49;;;;;;;3.75;1.70;;;25.90;48.60;;;24.80;36.60;100151.47;10435687;27;98138;-89
2022/07/22 00:05:52;;;;;;;4.20;1.63;;;25.80;48.70;;;24.72;36.87;100158.25;10424056;27;98291;-90
2022/07/22 00:10:55;;;;;;;3.40;1.60;;;25.70;48.90;;;24.65;37.42;100159.53;10436744;27;96723;-89
2022/07/22 00:15:58;;;;;;;3.60;1.58;;;25.60;49.10;;;24.53;37.72;100165.19;10412896;27;97457;-89
2022/07/22 00:21:03;;;;;;;3.83;1.60;;;25.50;49.40;;;24.37;37.71;100153.38;10460074;27;97121;-91
2022/07/22 00:26:13;;;;;;;3.75;1.42;;;25.40;49.50;;;24.28;38.00;100154.88;10456069;27;97050;-91
2022/07/22 00:31:16;;;;;;;2.53;1.38;;;25.30;49.50;;;24.22;38.05;100177.63;10440792;27;97651;-91
2022/07/22 00:36:19;;;;;;;4.07;1.70;;;25.20;49.70;;;24.11;38.22;100174.03;10423343;27;96653;-91
2022/07/22 00:41:22;;;;;;;2.08;1.38;;;25.10;50.00;;;23.93;38.78;100167.09;10417133;27;96960;-92
2022/07/22 00:46:28;;;;;;;4.97;1.70;;;25.00;50.10;;;23.90;37.29;100170.28;10438582;27;96803;-93
2022/07/22 00:51:32;;;;;;;3.38;1.80;;;24.80;49.30;;;24.00;36.75;100172.31;10437449;27;96715;-91
2022/07/22 00:56:36;;;;;;;2.28;1.67;;;24.90;48.70;;;24.22;36.15;100167.59;10443288;27;97998;-92
2022/07/22 01:01:39;;;;;;;4.68;1.48;;;25.10;48.30;;;24.41;35.95;100169.94;10456415;27;96568;-91
2022/07/22 01:06:45;;;;;;;4.43;1.50;;;25.30;48.00;;;24.54;35.69;100158.66;10468813;27;96468;-89
2022/07/22 01:11:48;;;;;;;4.03;1.27;;;25.50;47.90;;;24.65;35.93;100168.53;10452790;27;96706;-91
2022/07/22 01:16:51;;;;;;;3.15;1.50;;;25.60;47.90;;;24.72;35.88;100165.56;10454372;27;97121;-90
2022/07/22 01:21:55;;;;;;;2.55;1.60;;;25.70;47.90;;;24.70;36.32;100168.53;10436084;27;96821;-90
2022/07/22 01:26:58;;;;;;;3.70;1.55;;;25.80;48.10;;;24.66;36.77;100162.00;10432180;27;96804;-91
2022/07/22 01:32:01;;;;;;;2.88;1.60;;;25.70;48.30;;;24.60;36.52;100160.34;10428370;27;96886;-90
2022/07/22 01:37:04;;;;;;;3.95;1.70;;;25.70;48.40;;;24.39;37.21;100156.63;10455549;27;96454;-89
2022/07/22 01:42:07;;;;;;;3.40;1.55;;;25.50;48.70;;;24.23;37.89;100158.41;10454740;27;96668;-90
2022/07/22 01:47:10;;;;;;;3.38;1.75;;;25.30;49.20;;;24.13;38.13;100169.16;10445474;27;97306;-89
2022/07/22 01:52:13;;;;;;;4.55;1.70;;;25.20;49.70;;;23.97;38.00;100161.94;10438785;27;96723;-88
2022/07/22 01:57:16;;;;;;;3.60;1.92;;;25.10;49.90;;;23.81;38.79;100171.84;10446471;27;96665;-88
2022/07/22 02:02:19;;;;;;;3.58;1.48;;;24.90;50.20;;;23.62;39.66;100170.53;10427407;27;96861;-89
2022/07/22 02:07:24;;;;;;;2.80;1.63;;;24.80;50.70;;;23.44;39.91;100180.59;10435415;27;96717;-88
2022/07/22 02:12:28;;;;;;;3.28;1.50;;;24.60;51.00;;;23.16;39.45;100195.19;10430153;27;96698;-87
2022/07/22 02:17:32;;;;;;;2.95;1.60;;;24.30;50.90;;;22.91;39.96;100183.97;10430936;27;96588;-91
2022/07/22 02:22:35;;;;;;;2.50;1.67;;;24.00;51.20;;;22.79;39.72;100196.75;10434150;27;96886;-91
2022/07/22 02:27:40;;;;;;;3.33;1.15;;;23.80;51.20;;;22.60;39.94;100202.44;10408134;27;98346;-90
2022/07/22 02:32:43;;;;;;;5.57;1.38;;;23.70;51.50;;;22.51;40.09;100190.41;10429343;27;97285;-91
2022/07/22 02:37:46;;;;;;;4.47;1.33;;;23.50;51.60;;;22.39;40.61;100189.66;10437215;27;96537;-91
2022/07/22 02:42:49;;;;;;;7.60;1.70;;;23.50;51.90;;;22.30;40.72;100191.13;10425562;27;96567;-91
2022/07/22 02:47:55;;;;;;;3.80;1.70;;;23.30;52.00;;;22.26;40.46;100187.28;10422103;27;96485;-91
2022/07/22 02:52:59;;;;;;;3.95;1.50;;;23.30;52.10;;;22.28;41.36;100195.97;10442132;27;96763;-91
2022/07/22 02:58:07;;;;;;;3.05;1.38;;;23.30;52.20;;;22.19;41.25;100187.44;10417749;27;98284;-91
2022/07/22 03:03:10;;;;;;;2.72;1.23;;;23.30;52.50;;;22.06;42.03;100196.63;10421368;27;98495;-91
2022/07/22 03:08:13;;;;;;;5.93;3.53;;;23.20;53.00;;;21.97;42.17;100210.81;10426673;27;97356;-91
2022/07/22 03:13:16;;;;;;;2.97;2.03;;;23.00;53.20;;;21.84;42.86;100206.53;10437569;27;97440;-91
2022/07/22 03:18:18;;;;;;;4.70;2.20;;;22.90;53.70;;;21.73;43.46;100215.50;10456843;27;97322;-86
2022/07/22 03:23:22;;;;;;;4.45;1.70;;;22.80;54.10;;;21.68;43.75;100212.69;10439614;27;96717;-87
2022/07/22 03:28:25;;;;;;;3.33;1.80;;;22.70;54.30;;;21.63;43.66;100214.22;10450487;27;96755;-89
2022/07/22 03:33:28;;;;;;;3.13;1.67;;;22.70;54.50;;;21.56;44.05;100220.84;10457267;27;96942;-83
2022/07/22 03:38:33;;;;;;;4.30;1.60;;;22.60;54.70;;;21.58;43.71;100224.94;10440374;27;97263;-85
2022/07/22 03:43:37;;;;;;;10.32;2.00;;;22.60;54.80;;;21.60;44.27;100227.41;10450605;27;98873;-86
2022/07/22 03:48:41;;;;;;;4.68;1.77;;;22.70;55.20;;;21.60;44.46;100227.41;10431847;27;96684;-85
2022/07/22 03:53:47;;;;;;;4.72;1.70;;;22.70;55.30;;;21.64;44.97;100234.78;10423559;27;96700;-85
2022/07/22 03:58:51;;;;;;;4.05;1.80;;;22.60;55.50;;;21.69;45.02;100234.06;10451336;27;96930;-85
2022/07/22 04:03:55;;;;;;;3.15;1.73;;;22.70;55.80;;;21.69;45.59;100222.44;10454905;27;96816;-86
2022/07/22 04:09:06;;;;;;;6.22;1.80;;;22.70;56.20;;;21.73;45.62;100227.13;10441948;27;96687;-86
2022/07/22 04:14:11;;;;;;;3.60;1.55;;;22.70;56.50;;;21.80;45.60;100240.50;10445899;27;97271;-86
2022/07/22 04:19:14;;;;;;;7.07;2.22;;;22.80;56.70;;;21.82;46.43;100224.84;10444675;27;97132;-86
2022/07/22 04:24:17;;;;;;;6.20;1.88;;;22.90;57.10;;;21.90;47.00;100227.19;10439626;27;97524;-87
2022/07/22 04:29:20;;;;;;;6.90;2.50;;;22.90;57.60;;;21.98;47.57;100223.28;10419749;27;96812;-86
2022/07/22 04:34:23;;;;;;;4.20;1.85;;;23.00;58.00;;;22.11;47.17;100217.59;10414019;27;97632;-87
2022/07/22 04:39:26;;;;;;;2.45;1.50;;;23.10;58.20;;;22.29;47.81;100216.56;10447870;27;97332;-86
2022/07/22 04:44:30;;;;;;;4.65;2.03;;;23.30;58.60;;;22.47;48.09;100224.44;10435518;27;97369;-86
2022/07/22 04:49:33;;;;;;;4.72;2.08;;;23.50;58.80;;;22.65;48.45;100216.06;10443116;27;96933;-84
2022/07/22 04:54:37;;;;;;;10.57;2.30;;;23.60;58.80;;;22.93;47.95;100226.03;10420792;27;96848;-80
2022/07/22 04:59:40;;;;;;;5.65;2.10;;;23.90;58.50;;;23.13;47.46;100220.06;10449735;27;96827;-81
2022/07/22 05:04:43;;;;;;;7.93;1.92;;;24.00;58.30;;;23.35;47.30;100216.56;10420227;27;96540;-80
2022/07/22 05:09:50;;;;;;;3.22;1.90;;;24.20;58.40;;;23.55;46.82;100216.81;10439995;27;96828;-80
2022/07/22 05:14:53;;;;;;;6.35;2.22;;;24.50;58.00;;;23.78;46.27;100215.75;10437922;27;97526;-81
2022/07/22 05:19:56;;;;;;;10.20;2.58;;;24.70;57.60;;;24.06;45.95;100217.41;10439057;27;97816;-80
2022/07/22 05:25:05;;;;;;;5.30;1.92;;;24.90;57.20;;;24.38;45.76;100219.38;10448765;27;96488;-81
2022/07/22 05:30:10;;;;;;;2.72;1.70;;;25.30;57.10;;;24.72;45.20;100217.19;10460344;27;96581;-81
2022/07/22 05:35:13;;;;;;;5.25;2.00;;;25.60;56.70;;;25.04;44.11;100228.00;10426978;27;96690;-81
2022/07/22 05:40:24;;;;;;;7.53;1.80;;;25.90;56.20;;;25.38;42.81;100224.97;10442880;27;96670;-81
2022/07/22 05:45:27;;;;;;;2.85;1.83;;;26.20;55.00;;;25.69;42.43;100228.63;10464488;27;96800;-81
2022/07/22 05:50:31;;;;;;;4.75;1.77;;;26.60;54.50;;;25.97;41.72;100221.91;10443582;27;97499;-81
2022/07/22 05:55:34;;;;;;;4.38;1.77;;;26.90;54.40;;;26.20;41.71;100224.13;10441777;27;96746;-81
2022/07/22 06:00:39;;;;;;;7.38;1.70;;;27.10;54.10;;;26.41;41.26;100235.91;10442693;27;98226;-81
2022/07/22 06:05:43;;;;;;;7.53;2.30;;;27.40;53.70;;;26.59;40.85;100231.81;10455504;27;97320;-81
2022/07/22 06:10:48;;;;;;;7.25;2.20;;;27.50;53.50;;;26.75;40.56;100230.72;10464011;27;96945;-81
2022/07/22 06:15:52;;;;;;;3.17;1.70;;;27.70;53.00;;;26.89;40.30;100230.97;10452327;27;96792;-81
2022/07/22 06:20:59;;;;;;;5.95;1.83;;;27.90;52.50;;;27.01;39.43;100231.50;10450838;27;96618;-81
2022/07/22 06:26:03;;;;;;;7.72;1.77;;;28.00;52.20;;;27.14;37.35;100227.41;10459605;27;96806;-81
2022/07/22 06:31:07;;;;;;;5.75;1.90;;;28.20;51.10;;;27.24;35.68;100227.38;10441672;27;96559;-82
2022/07/22 06:36:11;;;;;;;5.88;2.05;;;28.30;49.60;;;27.37;35.41;100226.78;10442772;27;96590;-81
2022/07/22 06:41:14;;;;;;;4.15;1.73;;;28.40;48.80;;;27.55;35.80;100238.19;10425682;27;96527;-81
2022/07/22 06:46:17;;;;;;;4.93;1.75;;;28.60;49.20;;;27.66;35.14;100231.59;10423689;27;96648;-82
2022/07/22 06:51:22;;;;;;;4.18;2.03;;;28.70;48.40;;;27.81;34.26;100226.06;10447759;27;96487;-81
2022/07/22 06:56:29;;;;;;;5.68;1.80;;;28.90;47.90;;;27.98;34.64;100237.44;10432347;27;97987;-82
2022/07/22 07:01:33;;;;;;;7.13;2.28;;;29.10;48.20;;;28.17;35.42;100228.59;10444175;27;96679;-82
2022/07/22 07:06:36;;;;;;;6.05;1.77;;;29.20;48.00;;;28.24;34.07;100223.59;10446261;27;97036;-82
2022/07/22 07:11:40;;;;;;;4.47;1.85;;;29.40;47.20;;;28.30;33.25;100219.75;10437165;27;97061;-82
2022/07/22 07:16:45;;;;;;;4.18;1.50;;;29.40;46.90;;;28.39;32.95;100226.28;10440680;27;96619;-82
2022/07/22 07:21:48;;;;;;;5.00;1.85;;;29.50;46.50;;;28.40;31.56;100214.22;10421664;27;96644;-82
2022/07/22 07:26:52;;;;;;;3.83;1.77;;;29.60;45.30;;;28.59;30.61;100214.34;10422347;27;96864;-82
2022/07/22 07:31:55;;;;;;;4.50;1.52;;;29.70;44.70;;;28.80;28.98;100212.25;10445109;27;96915;-82
2022/07/22 07:36:58;;;;;;;7.35;1.70;;;29.90;43.30;;;28.97;28.23;100212.66;10427838;27;97157;-83
2022/07/22 07:42:01;;;;;;;4.05;1.40;;;30.10;42.30;;;29.27;28.66;100208.75;10427852;27;97616;-82
2022/07/22 07:47:05;;;;;;;5.43;1.90;;;30.30;42.50;;;29.49;28.87;100204.66;10426548;27;96788;-82
2022/07/22 07:52:09;;;;;;;5.63;1.85;;;30.60;42.40;;;29.74;28.90;100203.53;10469067;27;97035;-82
2022/07/22 07:57:18;;;;;;;6.82;1.73;;;30.80;42.60;;;29.95;28.60;100204.06;10433801;27;96715;-81
2022/07/22 08:02:21;;;;;;;4.80;2.10;;;31.00;42.30;;;30.17;27.90;100201.56;10459632;27;97063;-82
2022/07/22 08:07:25;;;;;;;5.07;1.75;;;31.30;42.10;;;30.26;27.49;100196.22;10458508;27;97336;-82
2022/07/22 08:12:28;;;;;;;2.50;1.35;;;31.40;41.80;;;30.38;27.37;100193.81;10429259;27;96736;-82
2022/07/22 08:17:33;;;;;;;5.63;2.13;;;31.50;41.50;;;30.53;27.88;100190.81;10438098;27;96701;-82
2022/07/22 08:22:38;;;;;;;6.10;1.90;;;31.60;41.90;;;30.76;27.81;100190.97;10440945;27;96629;-83
2022/07/22 08:27:48;;;;;;;2.67;1.58;;;31.80;42.00;;;31.11;26.62;100189.50;10424100;27;96791;-82
2022/07/22 08:32:51;;;;;;;4.70;1.55;;;32.10;41.30;;;31.30;25.36;100187.47;10442393;27;98991;-83
2022/07/22 08:37:54;;;;;;;1.92;1.35;;;32.30;40.20;;;31.44;24.70;100188.28;10445976;27;96663;-82
2022/07/22 08:43:00;;;;;;;5.28;1.33;;;32.50;39.60;;;31.63;24.64;100181.84;10394492;27;96757;-82
2022/07/22 08:48:05;;;;;;;3.42;1.70;;;32.60;39.40;;;31.78;25.23;100186.16;10416878;27;96821;-81
2022/07/22 08:53:12;;;;;;;3.35;1.50;;;32.80;39.70;;;31.96;25.55;100182.47;10434987;27;96584;-81
2022/07/22 08:58:17;;;;;;;4.72;1.70;;;33.00;39.90;;;32.08;25.05;100188.22;10445693;27;96767;-81
2022/07/22 09:03:27;;;;;;;4.38;1.80;;;33.00;39.90;;;32.17;24.19;100183.63;10443223;27;96655;-82
2022/07/22 09:09:06;;;;;;;8.80;1.95;;;33.20;39.10;;;32.27;24.75;100182.56;10444779;27;97326;-81
2022/07/22 09:14:15;;;;;;;7.07;1.92;;;33.30;39.10;;;32.42;24.31;100170.41;10461503;27;96678;-82
2022/07/22 09:19:32;;;;;;;6.13;2.05;;;33.50;39.10;;;32.60;24.04;100169.38;10445538;27;96710;-82
2022/07/22 09:24:36;;;;;;;10.25;1.90;;;33.60;39.10;;;32.74;23.61;100167.31;10424742;27;96712;-83
2022/07/22 09:29:50;;;;;;;4.95;1.90;;;33.80;38.50;;;32.82;23.11;100156.69;10461843;27;96623;-81
2022/07/22 09:35:04;;;;;;;4.43;1.70;;;33.90;38.10;;;33.01;23.26;100157.28;10464690;27;96555;-81
2022/07/22 09:40:20;;;;;;;2.67;1.75;;;34.10;38.30;;;33.40;23.47;100159.19;10447776;27;96960;-81
2022/07/22 09:45:26;;;;;;;6.22;1.80;;;34.30;38.40;;;33.62;22.50;100152.72;10438255;27;96548;-83
2022/07/22 09:50:34;;;;;;;5.00;1.98;;;34.60;38.10;;;33.83;22.87;100144.66;10443302;27;96723;-81
2022/07/22 09:55:40;;;;;;;6.70;2.17;;;34.80;38.10;;;34.10;22.66;100135.25;10426148;27;97026;-82
2022/07/22 10:00:44;;;;;;;3.90;1.85;;;35.00;37.80;;;34.35;21.96;100126.09;10411956;27;96712;-82
2022/07/22 10:05:48;;;;;;;2.83;1.88;;;35.30;38.10;;;34.40;21.90;100119.59;10439791;27;96715;-82
2022/07/22 10:10:53;;;;;;;5.65;1.92;;;35.50;37.20;;;34.72;21.81;100120.94;10436297;27;96811;-81
2022/07/22 10:15:57;;;;;;;3.00;1.77;;;35.70;37.40;;;35.06;21.20;100119.19;10439684;27;96764;-82
2022/07/22 10:21:07;;;;;;;4.80;1.67;;;36.00;37.10;;;35.24;20.71;100106.91;10440725;27;96547;-83
2022/07/22 10:26:10;;;;;;;5.75;2.10;;;36.20;36.70;;;35.30;21.05;100102.00;10428637;27;96451;-81
2022/07/22 10:31:21;;;;;;;6.78;2.35;;;36.30;36.50;;;35.51;20.84;100100.09;10429359;27;96683;-83
2022/07/22 10:36:42;;;;;;;5.35;2.63;;;36.50;36.70;;;35.69;21.29;100091.63;10426927;27;96785;-84
2022/07/22 10:41:46;;;;;;;7.88;2.53;;;36.70;37.10;;;35.73;20.88;100087.84;10444507;27;96866;-82
2022/07/22 10:47:01;;;;;;;5.13;2.30;;;36.80;36.90;;;35.96;21.18;100093.03;10442548;27;96643;-82
2022/07/22 10:52:07;;;;;;;3.90;2.35;;;37.00;37.00;;;36.13;20.55;100079.03;10432186;27;96698;-81
2022/07/22 10:57:32;;;;;;;5.82;2.50;;;37.10;36.50;;;36.27;20.56;100067.63;10462322;27;96498;-83
2022/07/22 11:02:40;;;;;;;5.25;2.20;;;37.30;36.40;;;36.43;20.34;100063.91;10443480;27;96608;-82
2022/07/22 11:07:46;;;;;;;5.90;2.55;;;37.40;36.40;;;36.62;21.47;100070.81;10439615;27;96590;-81
2022/07/22 11:12:50;;;;;;;;;;;37.60;37.10;;;37.00;20.53;100069.66;10434980;27;96831;-81
2022/07/22 11:17:57;;;;;;;6.75;2.20;;;37.90;37.00;;;37.28;20.02;100067.75;10454722;27;97514;-80
2022/07/22 11:23:01;;;;;;;3.55;2.30;;;38.20;36.40;;;37.38;20.32;100064.53;10450145;27;97151;-81
2022/07/22 11:28:04;;;;;;;5.53;2.40;;;38.40;36.30;;;37.59;20.46;100049.66;10424501;27;96722;-82
2022/07/22 11:33:10;;;;;;;6.28;2.28;;;38.50;36.30;;;37.83;19.55;100049.59;10419933;27;97874;-81
2022/07/22 11:38:13;;;;;;;4.60;2.50;;;38.80;36.20;;;37.94;19.28;100031.28;10436350;27;98246;-84
2022/07/22 11:43:16;;;;;;;3.22;2.45;;;38.90;35.80;;;37.97;20.00;100038.88;10425534;27;98183;-82
2022/07/22 11:48:20;;;;;;;5.80;2.47;;;38.90;36.20;;;38.14;20.20;100031.38;10455003;27;96708;-83
2022/07/22 11:53:24;;;;;;;5.55;2.42;;;39.10;36.20;;;38.35;19.82;100020.03;10441971;27;98409;-84
2022/07/22 11:58:39;;;;;;;4.20;2.65;;;39.10;36.20;;;38.48;19.67;100013.22;10438190;27;96743;-84
2022/07/22 12:03:53;;;;;;;5.40;2.70;;;39.30;36.30;;;38.73;19.63;100019.38;10416806;27;97387;-91
2022/07/22 12:09:09;;;;;;;7.55;3.13;;;39.50;36.30;;;38.80;19.47;100017.56;10447991;27;98139;-87
2022/07/22 12:14:19;;;;;;;5.00;2.70;;;39.60;36.20;;;38.87;19.36;100010.56;10450622;27;96561;-86
2022/07/22 12:19:26;;;;;;;4.85;2.72;;;39.60;36.00;;;38.75;18.74;100000.41;10446511;27;96601;-89
2022/07/22 12:24:40;;;;;;;6.35;2.53;;;39.50;35.50;;;38.85;18.89;99990.69;10429473;27;96521;-86
2022/07/22 12:29:48;;;;;;;5.75;2.75;;;39.50;35.20;;;38.80;18.56;99986.22;10432892;27;97034;-86
2022/07/22 12:34:58;;;;;;;6.53;2.80;;;39.70;35.40;;;38.93;18.56;99976.59;10460707;27;96717;-87
2022/07/22 12:40:17;;;;;;;5.72;2.67;;;39.70;35.30;;;39.01;18.39;99978.34;10433170;27;96436;-87
2022/07/22 12:45:21;;;;;;;3.97;2.88;;;39.70;35.20;;;39.30;19.00;99965.09;10450313;27;97263;-86
2022/07/22 12:50:28;;;;;;;6.95;3.08;;;40.00;35.70;;;39.46;18.76;99960.22;10453313;27;98305;-87
2022/07/22 12:55:35;;;;;;;5.90;3.10;;;40.20;35.80;;;39.60;18.79;99957.75;10459439;27;96507;-87
2022/07/22 13:00:45;;;;;;;4.45;3.10;;;40.20;35.80;;;39.70;18.74;99961.06;10449397;27;96751;-87
2022/07/22 13:05:55;;;;;;;3.95;3.00;;;40.30;35.50;;;39.75;18.78;99963.56;10449607;27;99157;-86
2022/07/22 13:10:58;;;;;;;6.35;3.13;;;40.30;35.60;;;39.79;18.78;99947.75;10439836;27;96647;-85
2022/07/22 13:16:01;;;;;;;4.13;3.03;;;40.30;35.90;;;39.85;18.60;99946.25;10439953;27;96663;-86
2022/07/22 13:21:05;;;;;;;6.65;3.22;;;40.40;35.60;;;39.91;18.45;99950.34;10467645;27;98075;-85
2022/07/22 13:26:08;;;;;;;5.53;2.97;;;40.40;35.40;;;39.64;18.73;99945.88;10459716;27;97077;-86
2022/07/22 13:31:11;;;;;;;9.13;3.28;;;40.30;35.60;;;39.35;19.07;99942.56;10441483;27;97609;-85
2022/07/22 13:36:15;;;;;;;5.03;3.33;;;40.00;35.90;;;39.00;19.65;99926.75;10450452;27;96657;-85
2022/07/22 13:41:18;;;;;;;5.40;3.10;;;39.60;36.50;;;38.83;19.35;99918.84;10444031;27;96617;-85
2022/07/22 13:46:21;;;;;;;7.93;3.40;;;39.50;36.30;;;39.04;19.86;99921.25;10431882;27;97531;-85
2022/07/22 13:51:27;;;;;;;4.82;2.90;;;39.70;36.60;;;39.22;19.53;99914.09;10431781;27;96550;-82
2022/07/22 13:56:33;;;;;;;7.38;3.17;;;40.00;36.10;;;39.45;18.73;99905.78;10428111;27;96829;-82
2022/07/22 14:01:37;;;;;;;7.82;2.88;;;40.20;35.40;;;39.54;17.14;99911.94;10446270;27;96656;-81
2022/07/22 14:06:40;;;;;;;5.13;2.70;;;40.40;34.10;;;39.74;17.31;99909.09;10454565;27;97636;-81
2022/07/22 14:11:43;;;;;;;5.00;3.03;;;40.50;34.00;;;39.89;17.19;99910.97;10445225;27;96545;-82
2022/07/22 14:16:47;;;;;;;4.65;2.92;;;40.60;33.80;;;40.10;17.02;99902.16;10441656;27;96616;-82
2022/07/22 14:22:11;;;;;;;5.45;2.80;;;40.70;33.80;;;40.28;17.80;99902.44;10442463;27;97491;-82
2022/07/22 14:27:14;;;;;;;8.60;3.03;;;40.80;34.40;;;40.26;17.17;99904.81;10445938;27;96925;-81
2022/07/22 14:32:17;;;;;;;9.55;3.60;;;41.00;34.10;;;39.96;18.53;99899.16;10439568;27;96620;-82
2022/07/22 14:37:21;;;;;;;9.65;3.78;;;40.70;35.30;;;39.74;18.83;99895.19;10425258;27;96581;-82
2022/07/22 14:42:29;;;;;;;4.15;3.40;;;40.30;35.70;;;39.41;18.74;99898.59;10455670;27;96649;-83
2022/07/22 14:47:31;;;;;;;5.47;3.15;;;40.00;35.60;;;38.70;19.59;99898.72;10450904;27;98178;-81
2022/07/22 14:52:35;;;;;;;8.63;3.45;;;39.50;36.20;;;38.18;20.10;99899.09;10434064;27;98323;-82
2022/07/22 14:57:38;;;;;;;5.70;3.40;;;38.90;36.50;;;37.70;20.78;99889.97;10434174;27;96531;-81
2022/07/22 15:02:41;;;;;;;8.75;3.47;;;38.50;37.00;;;37.52;21.33;99900.59;10437803;27;96616;-81
2022/07/22 15:07:45;;;;;;;6.95;3.65;;;38.30;37.60;;;37.70;22.02;99895.53;10421634;27;98231;-81
2022/07/22 15:12:49;;;;;;;6.47;3.35;;;38.30;38.10;;;38.07;21.76;99881.41;10430461;27;96661;-81
2022/07/22 15:17:52;;;;;;;7.25;3.17;;;38.70;38.00;;;38.38;21.42;99878.56;10434388;27;98359;-82
2022/07/22 15:22:56;;;;;;;7.18;3.53;;;39.10;37.90;;;38.58;20.91;99889.72;10439684;27;96802;-82
2022/07/22 15:28:01;;;;;;;7.57;3.20;;;39.40;37.50;;;38.71;20.11;99880.09;10429434;27;97041;-81
2022/07/22 15:33:24;;;;;;;6.05;3.10;;;39.50;36.80;;;38.64;20.21;99875.19;10425807;27;96855;-81
2022/07/22 15:38:39;;;;;;;5.22;3.13;;;39.40;36.70;;;38.74;20.17;99871.84;10440442;27;96921;-81
2022/07/22 15:43:42;;;;;;;6.50;2.80;;;39.50;36.80;;;38.75;20.56;99867.13;10449545;27;96612;-82
2022/07/22 15:48:49;;;;;;;6.25;3.40;;;39.50;36.90;;;38.66;20.22;99869.25;10455466;27;96561;-82
2022/07/22 15:53:52;;;;;;;4.53;2.80;;;39.50;36.80;;;38.35;20.42;99865.44;10430208;27;98377;-82
2022/07/22 15:59:32;;;;;;;5.70;3.30;;;39.20;36.70;;;38.23;20.61;99859.97;10447505;27;97531;-84
2022/07/22 16:04:37;;;;;;;5.03;3.05;;;38.90;36.90;;;38.28;20.18;99877.19;10431172;27;96813;-83
2022/07/22 16:09:41;;;;;;;4.18;3.15;;;38.80;37.00;;;38.50;20.78;99861.78;10444025;27;96550;-83
2022/07/22 16:14:44;;;;;;;6.88;3.10;;;38.90;37.20;;;38.62;20.54;99871.94;10463302;27;96842;-86
2022/07/22 16:19:47;;;;;;;4.25;3.13;;;39.10;37.00;;;38.65;20.32;99859.34;10434355;27;96612;-83
2022/07/22 16:24:50;;;;;;;5.35;3.10;;;39.10;36.90;;;38.60;20.04;99865.97;10425731;27;96777;-84
2022/07/22 16:29:53;;;;;;;5.05;2.90;;;39.10;36.80;;;38.51;19.87;99860.66;10439088;27;96674;-83
2022/07/22 16:34:56;;;;;;;6.25;3.20;;;39.00;36.70;;;38.42;20.11;99864.78;10431276;27;96740;-84
2022/07/22 16:39:59;;;;;;;4.68;2.83;;;38.90;36.80;;;38.26;20.15;99867.56;10457760;27;98418;-83
2022/07/22 16:45:08;;;;;;;5.63;2.72;;;38.80;37.10;;;38.11;20.75;99860.09;10444659;27;97497;-83
2022/07/22 16:50:11;;;;;;;5.28;3.13;;;38.60;37.40;;;37.96;21.21;99859.75;10445660;27;96841;-83
2022/07/22 16:55:14;;;;;;;10.07;3.05;;;38.50;37.60;;;37.82;21.55;99862.19;10462901;27;96923;-85
2022/07/22 17:00:17;;;;;;;4.18;2.97;;;38.40;38.30;;;37.56;21.84;99867.44;10444097;27;96698;-84
2022/07/22 17:05:20;;;;;;;8.00;3.63;;;38.20;38.30;;;37.24;21.83;99861.81;10435571;27;96572;-86
2022/07/22 17:10:23;;;;;;;5.03;3.38;;;37.90;38.50;;;36.89;22.87;99867.22;10445722;27;96743;-84
2022/07/22 17:15:26;;;;;;;10.00;3.20;;;37.50;38.70;;;36.56;23.19;99864.63;10437549;27;96969;-85
2022/07/22 17:20:29;;;;;;;5.35;3.10;;;37.20;39.10;;;36.30;23.39;99868.59;10430303;27;96961;-85
2022/07/22 17:25:31;;;;;;;5.32;2.97;;;36.90;39.50;;;36.00;24.09;99879.09;10425549;27;96655;-84
2022/07/22 17:30:34;;;;;;;7.93;3.65;;;36.70;39.90;;;35.74;24.76;99882.16;10424871;27;96654;-85
2022/07/22 17:35:41;;;;;;;3.05;2.60;;;36.40;40.40;;;35.53;24.75;99885.00;10467083;27;96729;-84
2022/07/22 17:40:44;;;;;;;4.67;3.30;;;36.20;40.30;;;35.30;24.80;99881.00;10467859;27;96628;-84
2022/07/22 17:45:47;;;;;;;6.85;3.33;;;36.00;40.60;;;35.06;25.20;99884.50;10449991;27;96729;-84
2022/07/22 17:50:50;;;;;;;8.52;3.10;;;35.80;40.90;;;34.83;25.73;99892.31;10447205;27;97092;-85
2022/07/22 17:55:55;;;;;;;10.20;3.58;;;35.60;41.30;;;34.57;26.52;99892.50;10440620;27;96769;-85
2022/07/22 18:01:18;;;;;;;11.38;3.00;;;35.30;41.70;;;34.26;26.86;99885.38;10463241;27;96686;-83
2022/07/22 18:06:23;;;;;;;11.50;3.72;;;35.00;42.30;;;33.98;27.46;99887.00;10450959;27;96928;-83
2022/07/22 18:11:27;;;;;;;14.05;3.50;;;34.80;42.70;;;33.72;27.99;99893.41;10430847;27;96685;-83
2022/07/22 18:16:30;;;;;;;7.20;3.50;;;34.50;42.80;;;33.47;28.10;99899.81;10436264;27;96746;-83
2022/07/22 18:21:33;;;;;;;7.22;3.10;;;34.30;43.10;;;33.23;28.58;99909.38;10429247;27;97042;-85
2022/07/22 18:26:36;;;;;;;4.32;2.95;;;34.10;43.30;;;33.01;28.75;99912.31;10410166;27;96738;-84
2022/07/22 18:31:39;;;;;;;6.57;3.28;;;33.90;43.60;;;32.78;29.24;99916.31;10422494;27;96658;-84
2022/07/22 18:36:42;;;;;;;4.43;3.10;;;33.60;43.80;;;32.60;29.60;99921.00;10441657;27;97083;-84
2022/07/22 18:41:45;;;;;;;3.65;3.08;;;33.50;44.20;;;32.37;29.93;99915.59;10427933;27;96553;-84
2022/07/22 18:46:49;;;;;;;5.35;3.40;;;33.30;44.60;;;32.17;30.59;99916.19;10417553;27;96803;-84
2022/07/22 18:52:00;;;;;;;6.38;3.20;;;33.00;44.80;;;32.01;30.64;99939.72;10461674;27;96601;-85
2022/07/22 18:57:03;;;;;;;3.97;3.20;;;32.90;45.20;;;31.85;30.84;99940.16;10435543;27;96542;-84
2022/07/22 19:02:06;;;;;;;6.20;3.25;;;32.70;45.40;;;31.67;31.13;99939.22;10432683;27;96627;-83
2022/07/22 19:07:11;;;;;;;4.95;3.30;;;32.50;45.60;;;31.53;31.77;99949.44;10438529;27;96999;-84
2022/07/22 19:12:13;;;;;;;7.35;3.40;;;32.40;45.80;;;31.42;31.97;99948.06;10437562;27;96836;-84
2022/07/22 19:17:16;;;;;;;6.05;3.13;;;32.20;45.90;;;31.29;31.95;99948.97;10453192;27;97436;-84
2022/07/22 19:22:21;;;;;;;6.07;3.10;;;32.10;46.00;;;31.24;32.17;99949.03;10440949;27;96905;-83
2022/07/22 19:27:23;;;;;;;6.53;3.30;;;32.00;46.30;;;31.11;32.29;99962.50;10431688;27;96591;-83
2022/07/22 19:32:26;;;;;;;3.38;3.08;;;32.00;46.30;;;31.00;32.34;99955.63;10443363;27;96781;-83
2022/07/22 19:37:29;;;;;;;5.78;3.33;;;31.90;46.30;;;30.91;32.59;99952.03;10455793;27;96860;-83
2022/07/22 19:42:32;;;;;;;7.78;3.38;;;31.80;46.40;;;30.84;32.34;99957.13;10434612;27;98039;-84
2022/07/22 19:47:35;;;;;;;3.45;2.90;;;31.70;46.40;;;30.78;32.79;99961.09;10439633;27;96787;-84
2022/07/22 19:52:39;;;;;;;4.30;2.83;;;31.60;46.60;;;30.69;33.30;99968.41;10453067;27;96644;-84
2022/07/22 19:57:42;;;;;;;5.45;3.17;;;31.60;46.80;;;30.58;33.61;99974.06;10428886;27;97407;-85
2022/07/22 20:02:46;;;;;;;5.70;3.20;;;31.50;47.20;;;30.48;33.91;99974.31;10423221;27;96763;-81
2022/07/22 20:07:50;;;;;;;4.63;3.30;;;31.50;47.60;;;30.32;34.49;99978.47;10461230;27;96476;-81
2022/07/22 20:12:52;;;;;;;5.20;3.35;;;31.30;47.90;;;30.11;35.06;99981.63;10441366;27;96736;-83
2022/07/22 20:17:56;;;;;;;7.93;3.60;;;31.10;48.50;;;29.92;35.55;99982.75;10432219;27;97997;-82
2022/07/22 20:22:59;;;;;;;6.80;3.28;;;30.90;48.90;;;29.74;36.00;99981.69;10411648;27;96600;-82
2022/07/22 20:28:02;;;;;;;6.30;3.65;;;30.70;49.30;;;29.55;36.22;99985.28;10450878;27;97275;-85
2022/07/22 20:33:06;;;;;;;6.13;3.10;;;30.50;49.60;;;29.37;36.58;99985.28;10437283;27;96563;-85
2022/07/22 20:38:10;;;;;;;11.50;3.97;;;30.30;50.10;;;29.19;37.28;99976.81;10426620;27;97036;-84
2022/07/22 20:43:15;;;;;;;7.63;3.28;;;30.10;50.50;;;29.01;37.80;99981.16;10441466;27;98258;-84
2022/07/22 20:48:19;;;;;;;5.40;3.70;;;29.90;50.90;;;28.84;37.59;99974.53;10437541;27;96869;-85
2022/07/22 20:53:23;;;;;;;6.82;3.58;;;29.80;51.10;;;28.68;38.11;99979.44;10447747;27;96722;-83
2022/07/22 20:58:28;;;;;;;5.05;3.63;;;29.60;51.40;;;28.51;38.12;99977.16;10431636;27;96578;-84